sensor_id;sensor_type;location;lat;lon;timestamp;P1;durP1;ratioP1;P2;durP2;ratioP2
11086;SDS011;5597;47.588;9.642;2024-01-07T00:00:59;8.33;;;6.97;;
11086;SDS011;5597;47.588;9.642;2024-01-07T00:03:25;8.87;;;7.73;;
11086;SDS011;5597;47.588;9.642;2024-01-07T00:05:51;8.23;;;7.23;;
11086;SDS011;5597;47.588;9.642;2024-01-07T00:08:16;8.37;;;7.30;;
11086;SDS011;5597;47.588;9.642;2024-01-07T00:10:42;9.00;;;6.90;;
11086;SDS011;5597;47.588;9.642;2024-01-07T00:13:07;8.97;;;7.23;;
11086;SDS011;5597;47.588;9.642;2024-01-07T00:15:33;8.47;;;7.47;;
11086;SDS011;5597;47.588;9.642;2024-01-07T00:17:59;8.13;;;7.00;;
11086;SDS011;5597;47.588;9.642;2024-01-07T00:20:25;7.97;;;6.80;;
11086;SDS011;5597;47.588;9.642;2024-01-07T00:22:50;7.90;;;7.10;;
11086;SDS011;5597;47.588;9.642;2024-01-07T00:25:16;7.50;;;6.63;;
11086;SDS011;5597;47.588;9.642;2024-01-07T00:27:43;8.27;;;7.40;;
11086;SDS011;5597;47.588;9.642;2024-01-07T00:30:09;8.03;;;6.93;;
11086;SDS011;5597;47.588;9.642;2024-01-07T00:32:35;8.90;;;7.40;;
11086;SDS011;5597;47.588;9.642;2024-01-07T00:35:00;7.80;;;6.63;;
11086;SDS011;5597;47.588;9.642;2024-01-07T00:37:26;8.10;;;7.07;;
11086;SDS011;5597;47.588;9.642;2024-01-07T00:39:51;8.37;;;7.20;;
11086;SDS011;5597;47.588;9.642;2024-01-07T00:42:17;8.33;;;7.33;;
11086;SDS011;5597;47.588;9.642;2024-01-07T00:44:42;7.40;;;6.50;;
11086;SDS011;5597;47.588;9.642;2024-01-07T00:47:08;7.60;;;6.40;;
11086;SDS011;5597;47.588;9.642;2024-01-07T00:49:33;9.30;;;7.43;;
11086;SDS011;5597;47.588;9.642;2024-01-07T00:51:59;8.80;;;6.90;;
11086;SDS011;5597;47.588;9.642;2024-01-07T00:54:24;9.20;;;7.67;;
11086;SDS011;5597;47.588;9.642;2024-01-07T00:56:50;8.40;;;7.33;;
11086;SDS011;5597;47.588;9.642;2024-01-07T00:59:15;8.43;;;7.00;;
11086;SDS011;5597;47.588;9.642;2024-01-07T01:01:41;9.23;;;7.23;;
11086;SDS011;5597;47.588;9.642;2024-01-07T01:04:07;8.87;;;7.70;;
11086;SDS011;5597;47.588;9.642;2024-01-07T01:06:32;8.67;;;7.30;;
11086;SDS011;5597;47.588;9.642;2024-01-07T01:08:58;9.17;;;7.73;;
11086;SDS011;5597;47.588;9.642;2024-01-07T01:11:23;9.10;;;7.90;;
11086;SDS011;5597;47.588;9.642;2024-01-07T01:13:58;9.70;;;7.70;;
11086;SDS011;5597;47.588;9.642;2024-01-07T01:16:24;8.97;;;7.80;;
11086;SDS011;5597;47.588;9.642;2024-01-07T01:18:52;8.23;;;7.37;;
11086;SDS011;5597;47.588;9.642;2024-01-07T01:21:18;9.10;;;7.13;;
11086;SDS011;5597;47.588;9.642;2024-01-07T01:23:43;9.97;;;8.17;;
11086;SDS011;5597;47.588;9.642;2024-01-07T01:26:09;8.43;;;6.90;;
11086;SDS011;5597;47.588;9.642;2024-01-07T01:28:35;8.20;;;7.10;;
11086;SDS011;5597;47.588;9.642;2024-01-07T01:31:00;8.20;;;7.20;;
11086;SDS011;5597;47.588;9.642;2024-01-07T01:33:26;8.77;;;7.07;;
11086;SDS011;5597;47.588;9.642;2024-01-07T01:35:51;9.10;;;7.63;;
11086;SDS011;5597;47.588;9.642;2024-01-07T01:38:17;8.10;;;7.17;;
11086;SDS011;5597;47.588;9.642;2024-01-07T01:40:43;9.73;;;7.80;;
11086;SDS011;5597;47.588;9.642;2024-01-07T01:43:08;9.07;;;7.47;;
11086;SDS011;5597;47.588;9.642;2024-01-07T01:45:34;8.27;;;7.37;;
11086;SDS011;5597;47.588;9.642;2024-01-07T01:48:00;8.97;;;7.33;;
11086;SDS011;5597;47.588;9.642;2024-01-07T01:50:25;9.50;;;7.80;;
11086;SDS011;5597;47.588;9.642;2024-01-07T01:52:51;8.60;;;7.00;;
11086;SDS011;5597;47.588;9.642;2024-01-07T01:55:18;9.07;;;8.00;;
11086;SDS011;5597;47.588;9.642;2024-01-07T01:57:44;8.27;;;6.97;;
11086;SDS011;5597;47.588;9.642;2024-01-07T02:00:12;8.70;;;7.23;;
11086;SDS011;5597;47.588;9.642;2024-01-07T02:02:38;8.57;;;7.47;;
11086;SDS011;5597;47.588;9.642;2024-01-07T02:05:03;8.47;;;7.40;;
11086;SDS011;5597;47.588;9.642;2024-01-07T02:07:29;7.97;;;6.80;;
11086;SDS011;5597;47.588;9.642;2024-01-07T02:09:56;8.40;;;7.20;;
11086;SDS011;5597;47.588;9.642;2024-01-07T02:12:21;8.23;;;7.03;;
11086;SDS011;5597;47.588;9.642;2024-01-07T02:14:47;8.73;;;7.53;;
11086;SDS011;5597;47.588;9.642;2024-01-07T02:17:13;8.60;;;6.90;;
11086;SDS011;5597;47.588;9.642;2024-01-07T02:19:39;7.67;;;6.67;;
11086;SDS011;5597;47.588;9.642;2024-01-07T02:22:05;8.73;;;7.23;;
11086;SDS011;5597;47.588;9.642;2024-01-07T02:24:31;8.60;;;7.13;;
11086;SDS011;5597;47.588;9.642;2024-01-07T02:26:57;8.20;;;7.27;;
11086;SDS011;5597;47.588;9.642;2024-01-07T02:29:27;7.50;;;6.57;;
11086;SDS011;5597;47.588;9.642;2024-01-07T02:31:53;8.10;;;7.27;;
11086;SDS011;5597;47.588;9.642;2024-01-07T02:34:18;8.27;;;6.37;;
11086;SDS011;5597;47.588;9.642;2024-01-07T02:36:44;8.87;;;6.80;;
11086;SDS011;5597;47.588;9.642;2024-01-07T02:39:09;8.03;;;6.90;;
11086;SDS011;5597;47.588;9.642;2024-01-07T02:41:35;8.13;;;6.80;;
11086;SDS011;5597;47.588;9.642;2024-01-07T02:44:00;9.63;;;6.93;;
11086;SDS011;5597;47.588;9.642;2024-01-07T02:46:26;9.13;;;6.97;;
11086;SDS011;5597;47.588;9.642;2024-01-07T02:48:51;8.07;;;6.87;;
11086;SDS011;5597;47.588;9.642;2024-01-07T02:51:17;7.90;;;6.53;;
11086;SDS011;5597;47.588;9.642;2024-01-07T02:53:42;7.90;;;6.60;;
11086;SDS011;5597;47.588;9.642;2024-01-07T02:56:08;7.97;;;6.50;;
11086;SDS011;5597;47.588;9.642;2024-01-07T02:58:34;8.50;;;6.90;;
11086;SDS011;5597;47.588;9.642;2024-01-07T03:00:59;7.87;;;6.60;;
11086;SDS011;5597;47.588;9.642;2024-01-07T03:03:25;7.10;;;6.20;;
11086;SDS011;5597;47.588;9.642;2024-01-07T03:05:51;7.20;;;6.30;;
11086;SDS011;5597;47.588;9.642;2024-01-07T03:08:16;7.23;;;6.20;;
11086;SDS011;5597;47.588;9.642;2024-01-07T03:10:42;7.43;;;6.00;;
11086;SDS011;5597;47.588;9.642;2024-01-07T03:13:07;7.67;;;6.67;;
11086;SDS011;5597;47.588;9.642;2024-01-07T03:15:33;7.37;;;6.53;;
11086;SDS011;5597;47.588;9.642;2024-01-07T03:17:58;6.63;;;5.73;;
11086;SDS011;5597;47.588;9.642;2024-01-07T03:20:24;7.93;;;6.67;;
11086;SDS011;5597;47.588;9.642;2024-01-07T03:22:49;7.13;;;5.90;;
11086;SDS011;5597;47.588;9.642;2024-01-07T03:25:15;7.23;;;6.30;;
11086;SDS011;5597;47.588;9.642;2024-01-07T03:27:41;6.53;;;5.80;;
11086;SDS011;5597;47.588;9.642;2024-01-07T03:30:07;6.40;;;5.70;;
11086;SDS011;5597;47.588;9.642;2024-01-07T03:32:34;7.40;;;6.23;;
11086;SDS011;5597;47.588;9.642;2024-01-07T03:34:59;7.97;;;6.73;;
11086;SDS011;5597;47.588;9.642;2024-01-07T03:37:25;8.80;;;6.87;;
11086;SDS011;5597;47.588;9.642;2024-01-07T03:39:50;9.30;;;7.47;;
11086;SDS011;5597;47.588;9.642;2024-01-07T03:42:16;9.97;;;7.73;;
11086;SDS011;5597;47.588;9.642;2024-01-07T03:44:41;8.87;;;7.80;;
11086;SDS011;5597;47.588;9.642;2024-01-07T03:47:07;9.07;;;7.27;;
11086;SDS011;5597;47.588;9.642;2024-01-07T03:49:33;8.70;;;7.13;;
11086;SDS011;5597;47.588;9.642;2024-01-07T03:52:00;8.03;;;6.97;;
11086;SDS011;5597;47.588;9.642;2024-01-07T03:54:26;8.83;;;7.50;;
11086;SDS011;5597;47.588;9.642;2024-01-07T03:56:52;8.63;;;7.07;;
11086;SDS011;5597;47.588;9.642;2024-01-07T03:59:17;8.93;;;7.17;;
11086;SDS011;5597;47.588;9.642;2024-01-07T04:01:43;8.33;;;7.20;;
11086;SDS011;5597;47.588;9.642;2024-01-07T04:04:09;7.73;;;6.50;;
11086;SDS011;5597;47.588;9.642;2024-01-07T04:06:35;7.90;;;6.77;;
11086;SDS011;5597;47.588;9.642;2024-01-07T04:09:00;7.17;;;6.27;;
11086;SDS011;5597;47.588;9.642;2024-01-07T04:11:26;8.20;;;6.47;;
11086;SDS011;5597;47.588;9.642;2024-01-07T04:13:51;8.23;;;6.93;;
11086;SDS011;5597;47.588;9.642;2024-01-07T04:16:18;7.60;;;6.63;;
11086;SDS011;5597;47.588;9.642;2024-01-07T04:18:44;8.37;;;6.97;;
11086;SDS011;5597;47.588;9.642;2024-01-07T04:21:10;7.83;;;6.77;;
11086;SDS011;5597;47.588;9.642;2024-01-07T04:23:36;8.37;;;7.00;;
11086;SDS011;5597;47.588;9.642;2024-01-07T04:26:04;7.50;;;6.43;;
11086;SDS011;5597;47.588;9.642;2024-01-07T04:28:29;8.17;;;7.17;;
11086;SDS011;5597;47.588;9.642;2024-01-07T04:30:55;9.50;;;7.97;;
11086;SDS011;5597;47.588;9.642;2024-01-07T04:33:20;8.77;;;7.10;;
11086;SDS011;5597;47.588;9.642;2024-01-07T04:35:46;8.00;;;6.60;;
11086;SDS011;5597;47.588;9.642;2024-01-07T04:38:11;7.60;;;6.43;;
11086;SDS011;5597;47.588;9.642;2024-01-07T04:40:37;8.00;;;6.67;;
11086;SDS011;5597;47.588;9.642;2024-01-07T04:43:03;8.80;;;6.87;;
11086;SDS011;5597;47.588;9.642;2024-01-07T04:45:28;8.27;;;6.97;;
11086;SDS011;5597;47.588;9.642;2024-01-07T04:47:54;9.00;;;7.20;;
11086;SDS011;5597;47.588;9.642;2024-01-07T04:50:19;8.67;;;7.00;;
11086;SDS011;5597;47.588;9.642;2024-01-07T04:52:45;6.50;;;5.80;;
11086;SDS011;5597;47.588;9.642;2024-01-07T04:55:11;7.50;;;6.17;;
11086;SDS011;5597;47.588;9.642;2024-01-07T04:57:37;7.47;;;6.47;;
11086;SDS011;5597;47.588;9.642;2024-01-07T05:00:03;7.90;;;6.60;;
11086;SDS011;5597;47.588;9.642;2024-01-07T05:02:29;7.73;;;6.43;;
11086;SDS011;5597;47.588;9.642;2024-01-07T05:04:55;7.13;;;6.10;;
11086;SDS011;5597;47.588;9.642;2024-01-07T05:07:20;7.70;;;6.33;;
11086;SDS011;5597;47.588;9.642;2024-01-07T05:09:46;7.80;;;6.43;;
11086;SDS011;5597;47.588;9.642;2024-01-07T05:12:11;8.00;;;6.40;;
11086;SDS011;5597;47.588;9.642;2024-01-07T05:14:37;7.77;;;6.63;;
11086;SDS011;5597;47.588;9.642;2024-01-07T05:17:03;7.80;;;6.40;;
11086;SDS011;5597;47.588;9.642;2024-01-07T05:19:29;8.07;;;6.53;;
11086;SDS011;5597;47.588;9.642;2024-01-07T05:21:54;7.03;;;6.17;;
11086;SDS011;5597;47.588;9.642;2024-01-07T05:24:21;6.60;;;5.73;;
11086;SDS011;5597;47.588;9.642;2024-01-07T05:26:46;7.77;;;6.27;;
11086;SDS011;5597;47.588;9.642;2024-01-07T05:29:12;7.43;;;6.20;;
11086;SDS011;5597;47.588;9.642;2024-01-07T05:31:39;7.17;;;5.73;;
11086;SDS011;5597;47.588;9.642;2024-01-07T05:34:05;7.20;;;5.80;;
11086;SDS011;5597;47.588;9.642;2024-01-07T05:36:31;7.40;;;6.20;;
11086;SDS011;5597;47.588;9.642;2024-01-07T05:38:56;7.43;;;6.10;;
11086;SDS011;5597;47.588;9.642;2024-01-07T05:41:22;7.60;;;6.30;;
11086;SDS011;5597;47.588;9.642;2024-01-07T05:43:48;7.80;;;6.87;;
11086;SDS011;5597;47.588;9.642;2024-01-07T05:46:13;8.00;;;7.00;;
11086;SDS011;5597;47.588;9.642;2024-01-07T05:48:42;8.30;;;6.73;;
11086;SDS011;5597;47.588;9.642;2024-01-07T05:51:13;7.17;;;6.03;;
11086;SDS011;5597;47.588;9.642;2024-01-07T05:53:39;7.27;;;6.20;;
11086;SDS011;5597;47.588;9.642;2024-01-07T05:56:06;8.13;;;6.50;;
11086;SDS011;5597;47.588;9.642;2024-01-07T05:58:32;8.30;;;7.00;;
11086;SDS011;5597;47.588;9.642;2024-01-07T06:00:57;7.23;;;6.13;;
11086;SDS011;5597;47.588;9.642;2024-01-07T06:03:23;6.57;;;5.77;;
11086;SDS011;5597;47.588;9.642;2024-01-07T06:05:49;7.50;;;6.50;;
11086;SDS011;5597;47.588;9.642;2024-01-07T06:08:15;7.30;;;5.90;;
11086;SDS011;5597;47.588;9.642;2024-01-07T06:10:40;7.77;;;6.47;;
11086;SDS011;5597;47.588;9.642;2024-01-07T06:13:06;7.00;;;5.87;;
11086;SDS011;5597;47.588;9.642;2024-01-07T06:15:32;7.83;;;6.30;;
11086;SDS011;5597;47.588;9.642;2024-01-07T06:17:57;7.47;;;6.47;;
11086;SDS011;5597;47.588;9.642;2024-01-07T06:20:23;7.53;;;6.03;;
11086;SDS011;5597;47.588;9.642;2024-01-07T06:22:49;7.33;;;6.43;;
11086;SDS011;5597;47.588;9.642;2024-01-07T06:25:15;6.90;;;6.07;;
11086;SDS011;5597;47.588;9.642;2024-01-07T06:27:41;8.20;;;6.73;;
11086;SDS011;5597;47.588;9.642;2024-01-07T06:30:07;6.87;;;5.90;;
11086;SDS011;5597;47.588;9.642;2024-01-07T06:32:33;8.53;;;6.90;;
11086;SDS011;5597;47.588;9.642;2024-01-07T06:34:59;8.03;;;6.63;;
11086;SDS011;5597;47.588;9.642;2024-01-07T06:37:24;7.57;;;6.43;;
11086;SDS011;5597;47.588;9.642;2024-01-07T06:39:50;7.70;;;6.33;;
11086;SDS011;5597;47.588;9.642;2024-01-07T06:42:16;7.60;;;6.20;;
11086;SDS011;5597;47.588;9.642;2024-01-07T06:44:42;6.70;;;5.90;;
11086;SDS011;5597;47.588;9.642;2024-01-07T06:47:07;7.03;;;5.83;;
11086;SDS011;5597;47.588;9.642;2024-01-07T06:49:33;7.67;;;6.33;;
11086;SDS011;5597;47.588;9.642;2024-01-07T06:51:59;7.60;;;5.97;;
11086;SDS011;5597;47.588;9.642;2024-01-07T06:54:24;6.50;;;5.40;;
11086;SDS011;5597;47.588;9.642;2024-01-07T06:56:50;6.80;;;5.90;;
11086;SDS011;5597;47.588;9.642;2024-01-07T06:59:16;6.77;;;5.50;;
11086;SDS011;5597;47.588;9.642;2024-01-07T07:01:42;6.67;;;5.80;;
11086;SDS011;5597;47.588;9.642;2024-01-07T07:04:07;6.83;;;6.07;;
11086;SDS011;5597;47.588;9.642;2024-01-07T07:06:33;6.83;;;6.10;;
11086;SDS011;5597;47.588;9.642;2024-01-07T07:08:59;7.13;;;5.73;;
11086;SDS011;5597;47.588;9.642;2024-01-07T07:11:25;6.20;;;5.60;;
11086;SDS011;5597;47.588;9.642;2024-01-07T07:13:50;7.13;;;5.70;;
11086;SDS011;5597;47.588;9.642;2024-01-07T07:16:16;6.37;;;5.33;;
11086;SDS011;5597;47.588;9.642;2024-01-07T07:18:41;6.73;;;5.67;;
11086;SDS011;5597;47.588;9.642;2024-01-07T07:21:07;7.40;;;5.70;;
11086;SDS011;5597;47.588;9.642;2024-01-07T07:23:33;7.23;;;6.00;;
11086;SDS011;5597;47.588;9.642;2024-01-07T07:25:59;7.53;;;6.27;;
11086;SDS011;5597;47.588;9.642;2024-01-07T07:28:24;6.50;;;5.80;;
11086;SDS011;5597;47.588;9.642;2024-01-07T07:30:50;6.77;;;5.67;;
11086;SDS011;5597;47.588;9.642;2024-01-07T07:33:17;6.83;;;5.73;;
11086;SDS011;5597;47.588;9.642;2024-01-07T07:35:42;6.63;;;5.47;;
11086;SDS011;5597;47.588;9.642;2024-01-07T07:38:08;6.77;;;5.67;;
11086;SDS011;5597;47.588;9.642;2024-01-07T07:40:34;6.87;;;5.80;;
11086;SDS011;5597;47.588;9.642;2024-01-07T07:42:59;7.37;;;6.27;;
11086;SDS011;5597;47.588;9.642;2024-01-07T07:45:25;7.10;;;6.20;;
11086;SDS011;5597;47.588;9.642;2024-01-07T07:47:50;6.83;;;5.57;;
11086;SDS011;5597;47.588;9.642;2024-01-07T07:50:16;6.47;;;5.60;;
11086;SDS011;5597;47.588;9.642;2024-01-07T07:52:42;6.00;;;5.40;;
11086;SDS011;5597;47.588;9.642;2024-01-07T07:55:08;6.47;;;5.20;;
11086;SDS011;5597;47.588;9.642;2024-01-07T07:57:34;6.43;;;5.77;;
11086;SDS011;5597;47.588;9.642;2024-01-07T08:00:00;6.80;;;5.97;;
11086;SDS011;5597;47.588;9.642;2024-01-07T08:02:26;6.53;;;5.73;;
11086;SDS011;5597;47.588;9.642;2024-01-07T08:04:52;6.47;;;5.50;;
11086;SDS011;5597;47.588;9.642;2024-01-07T08:07:17;6.97;;;5.53;;
11086;SDS011;5597;47.588;9.642;2024-01-07T08:09:43;6.73;;;5.70;;
11086;SDS011;5597;47.588;9.642;2024-01-07T08:12:09;6.63;;;5.70;;
11086;SDS011;5597;47.588;9.642;2024-01-07T08:14:37;6.23;;;5.50;;
11086;SDS011;5597;47.588;9.642;2024-01-07T08:17:05;7.07;;;5.87;;
11086;SDS011;5597;47.588;9.642;2024-01-07T08:19:32;6.63;;;5.93;;
11086;SDS011;5597;47.588;9.642;2024-01-07T08:21:57;6.63;;;5.93;;
11086;SDS011;5597;47.588;9.642;2024-01-07T08:24:23;6.17;;;5.43;;
11086;SDS011;5597;47.588;9.642;2024-01-07T08:26:49;6.77;;;5.97;;
11086;SDS011;5597;47.588;9.642;2024-01-07T08:29:14;6.63;;;5.47;;
11086;SDS011;5597;47.588;9.642;2024-01-07T08:31:40;8.13;;;6.70;;
11086;SDS011;5597;47.588;9.642;2024-01-07T08:34:07;7.30;;;6.30;;
11086;SDS011;5597;47.588;9.642;2024-01-07T08:36:33;6.33;;;5.73;;
11086;SDS011;5597;47.588;9.642;2024-01-07T08:38:58;6.73;;;6.03;;
11086;SDS011;5597;47.588;9.642;2024-01-07T08:41:25;6.57;;;5.77;;
11086;SDS011;5597;47.588;9.642;2024-01-07T08:43:51;5.90;;;5.13;;
11086;SDS011;5597;47.588;9.642;2024-01-07T08:46:17;6.10;;;5.50;;
11086;SDS011;5597;47.588;9.642;2024-01-07T08:48:45;5.27;;;4.77;;
11086;SDS011;5597;47.588;9.642;2024-01-07T08:51:11;8.40;;;6.30;;
11086;SDS011;5597;47.588;9.642;2024-01-07T08:53:38;6.90;;;6.13;;
11086;SDS011;5597;47.588;9.642;2024-01-07T08:56:05;6.20;;;5.57;;
11086;SDS011;5597;47.588;9.642;2024-01-07T08:58:31;7.47;;;6.67;;
11086;SDS011;5597;47.588;9.642;2024-01-07T09:00:57;6.23;;;5.63;;
11086;SDS011;5597;47.588;9.642;2024-01-07T09:03:23;6.03;;;5.43;;
11086;SDS011;5597;47.588;9.642;2024-01-07T09:05:48;8.67;;;7.00;;
11086;SDS011;5597;47.588;9.642;2024-01-07T09:08:14;6.60;;;5.90;;
11086;SDS011;5597;47.588;9.642;2024-01-07T09:10:40;6.10;;;5.40;;
11086;SDS011;5597;47.588;9.642;2024-01-07T09:13:05;6.73;;;5.93;;
11086;SDS011;5597;47.588;9.642;2024-01-07T09:15:32;7.23;;;6.20;;
11086;SDS011;5597;47.588;9.642;2024-01-07T09:17:57;6.90;;;6.20;;
11086;SDS011;5597;47.588;9.642;2024-01-07T09:20:23;7.70;;;6.20;;
11086;SDS011;5597;47.588;9.642;2024-01-07T09:22:49;6.90;;;6.20;;
11086;SDS011;5597;47.588;9.642;2024-01-07T09:25:14;7.17;;;6.23;;
11086;SDS011;5597;47.588;9.642;2024-01-07T09:27:41;6.77;;;6.07;;
11086;SDS011;5597;47.588;9.642;2024-01-07T09:30:08;6.20;;;5.50;;
11086;SDS011;5597;47.588;9.642;2024-01-07T09:32:35;6.80;;;5.80;;
11086;SDS011;5597;47.588;9.642;2024-01-07T09:35:01;7.30;;;6.50;;
11086;SDS011;5597;47.588;9.642;2024-01-07T09:37:27;7.43;;;6.63;;
11086;SDS011;5597;47.588;9.642;2024-01-07T09:39:53;7.07;;;6.37;;
11086;SDS011;5597;47.588;9.642;2024-01-07T09:42:19;7.40;;;6.40;;
11086;SDS011;5597;47.588;9.642;2024-01-07T09:44:45;7.77;;;6.97;;
11086;SDS011;5597;47.588;9.642;2024-01-07T09:47:11;7.87;;;6.93;;
11086;SDS011;5597;47.588;9.642;2024-01-07T09:49:41;7.67;;;6.57;;
11086;SDS011;5597;47.588;9.642;2024-01-07T09:52:08;7.07;;;6.37;;
11086;SDS011;5597;47.588;9.642;2024-01-07T09:54:39;7.50;;;6.70;;
11086;SDS011;5597;47.588;9.642;2024-01-07T09:57:07;8.17;;;7.27;;
11086;SDS011;5597;47.588;9.642;2024-01-07T09:59:33;8.30;;;7.40;;
11086;SDS011;5597;47.588;9.642;2024-01-07T10:02:00;7.90;;;7.03;;
11086;SDS011;5597;47.588;9.642;2024-01-07T10:04:26;7.63;;;6.83;;
11086;SDS011;5597;47.588;9.642;2024-01-07T10:06:55;9.37;;;7.97;;
11086;SDS011;5597;47.588;9.642;2024-01-07T10:09:24;7.57;;;6.77;;
11086;SDS011;5597;47.588;9.642;2024-01-07T10:11:54;8.73;;;7.80;;
11086;SDS011;5597;47.588;9.642;2024-01-07T10:14:20;8.13;;;7.20;;
11086;SDS011;5597;47.588;9.642;2024-01-07T10:16:49;8.03;;;7.20;;
11086;SDS011;5597;47.588;9.642;2024-01-07T10:19:24;7.90;;;7.07;;
11086;SDS011;5597;47.588;9.642;2024-01-07T10:22:03;9.37;;;7.87;;
11086;SDS011;5597;47.588;9.642;2024-01-07T10:24:39;8.60;;;7.70;;
11086;SDS011;5597;47.588;9.642;2024-01-07T10:27:05;7.83;;;7.03;;
11086;SDS011;5597;47.588;9.642;2024-01-07T10:29:32;9.37;;;8.13;;
11086;SDS011;5597;47.588;9.642;2024-01-07T10:31:58;8.90;;;7.90;;
11086;SDS011;5597;47.588;9.642;2024-01-07T10:34:32;8.37;;;7.47;;
11086;SDS011;5597;47.588;9.642;2024-01-07T10:37:00;8.93;;;8.00;;
11086;SDS011;5597;47.588;9.642;2024-01-07T10:39:26;8.90;;;8.00;;
11086;SDS011;5597;47.588;9.642;2024-01-07T10:41:52;8.80;;;7.90;;
11086;SDS011;5597;47.588;9.642;2024-01-07T10:44:26;7.87;;;6.93;;
11086;SDS011;5597;47.588;9.642;2024-01-07T10:46:55;8.00;;;7.20;;
11086;SDS011;5597;47.588;9.642;2024-01-07T10:49:21;8.87;;;7.97;;
11086;SDS011;5597;47.588;9.642;2024-01-07T10:52:12;8.47;;;7.57;;
11086;SDS011;5597;47.588;9.642;2024-01-07T10:54:38;8.63;;;7.73;;
11086;SDS011;5597;47.588;9.642;2024-01-07T10:57:21;8.90;;;7.87;;
11086;SDS011;5597;47.588;9.642;2024-01-07T10:59:56;8.80;;;7.43;;
11086;SDS011;5597;47.588;9.642;2024-01-07T11:02:23;8.77;;;7.63;;
11086;SDS011;5597;47.588;9.642;2024-01-07T11:07:46;8.07;;;7.17;;
11086;SDS011;5597;47.588;9.642;2024-01-07T11:10:25;8.70;;;7.80;;
11086;SDS011;5597;47.588;9.642;2024-01-07T11:13:05;8.00;;;7.20;;
11086;SDS011;5597;47.588;9.642;2024-01-07T11:15:50;7.30;;;6.50;;
11086;SDS011;5597;47.588;9.642;2024-01-07T11:18:19;7.90;;;6.67;;
11086;SDS011;5597;47.588;9.642;2024-01-07T11:20:46;7.77;;;6.67;;
11086;SDS011;5597;47.588;9.642;2024-01-07T11:26:08;7.20;;;6.23;;
11086;SDS011;5597;47.588;9.642;2024-01-07T11:28:46;7.93;;;6.23;;
11086;SDS011;5597;47.588;9.642;2024-01-07T11:31:16;8.03;;;6.03;;
11086;SDS011;5597;47.588;9.642;2024-01-07T11:33:44;6.50;;;5.87;;
11086;SDS011;5597;47.588;9.642;2024-01-07T11:36:14;7.00;;;6.30;;
11086;SDS011;5597;47.588;9.642;2024-01-07T11:38:41;7.40;;;5.83;;
11086;SDS011;5597;47.588;9.642;2024-01-07T11:41:12;6.70;;;6.00;;
11086;SDS011;5597;47.588;9.642;2024-01-07T11:44:12;7.17;;;6.27;;
11086;SDS011;5597;47.588;9.642;2024-01-07T11:46:33;6.90;;;5.97;;
11086;SDS011;5597;47.588;9.642;2024-01-07T11:48:59;6.30;;;5.60;;
11086;SDS011;5597;47.588;9.642;2024-01-07T11:51:26;7.23;;;6.03;;
11086;SDS011;5597;47.588;9.642;2024-01-07T11:53:52;6.57;;;5.73;;
11086;SDS011;5597;47.588;9.642;2024-01-07T11:56:18;7.73;;;6.40;;
11086;SDS011;5597;47.588;9.642;2024-01-07T11:58:44;6.23;;;5.33;;
11086;SDS011;5597;47.588;9.642;2024-01-07T12:01:09;6.40;;;5.70;;
11086;SDS011;5597;47.588;9.642;2024-01-07T12:03:35;6.13;;;5.50;;
11086;SDS011;5597;47.588;9.642;2024-01-07T12:06:00;6.80;;;5.70;;
11086;SDS011;5597;47.588;9.642;2024-01-07T12:08:27;6.90;;;5.43;;
11086;SDS011;5597;47.588;9.642;2024-01-07T12:10:53;5.50;;;4.87;;
11086;SDS011;5597;47.588;9.642;2024-01-07T12:13:20;5.33;;;4.80;;
11086;SDS011;5597;47.588;9.642;2024-01-07T12:15:46;5.20;;;4.70;;
11086;SDS011;5597;47.588;9.642;2024-01-07T12:18:11;5.90;;;5.30;;
11086;SDS011;5597;47.588;9.642;2024-01-07T12:20:37;5.67;;;5.07;;
11086;SDS011;5597;47.588;9.642;2024-01-07T12:23:09;6.50;;;4.83;;
11086;SDS011;5597;47.588;9.642;2024-01-07T12:25:35;7.07;;;6.00;;
11086;SDS011;5597;47.588;9.642;2024-01-07T12:28:02;6.97;;;5.53;;
11086;SDS011;5597;47.588;9.642;2024-01-07T12:30:34;6.13;;;5.00;;
11086;SDS011;5597;47.588;9.642;2024-01-07T12:33:00;5.10;;;4.40;;
11086;SDS011;5597;47.588;9.642;2024-01-07T12:35:28;4.53;;;3.80;;
11086;SDS011;5597;47.588;9.642;2024-01-07T12:37:55;4.47;;;4.03;;
11086;SDS011;5597;47.588;9.642;2024-01-07T12:40:21;4.90;;;4.17;;
11086;SDS011;5597;47.588;9.642;2024-01-07T12:42:49;4.90;;;4.40;;
11086;SDS011;5597;47.588;9.642;2024-01-07T12:45:14;4.80;;;3.93;;
11086;SDS011;5597;47.588;9.642;2024-01-07T12:47:41;5.80;;;4.53;;
11086;SDS011;5597;47.588;9.642;2024-01-07T12:50:07;5.40;;;4.57;;
11086;SDS011;5597;47.588;9.642;2024-01-07T12:52:37;5.47;;;4.80;;
11086;SDS011;5597;47.588;9.642;2024-01-07T12:55:04;5.40;;;4.80;;
11086;SDS011;5597;47.588;9.642;2024-01-07T12:57:30;5.70;;;5.10;;
11086;SDS011;5597;47.588;9.642;2024-01-07T12:59:56;6.03;;;4.70;;
11086;SDS011;5597;47.588;9.642;2024-01-07T13:02:22;5.17;;;4.20;;
11086;SDS011;5597;47.588;9.642;2024-01-07T13:04:48;5.00;;;4.20;;
11086;SDS011;5597;47.588;9.642;2024-01-07T13:07:14;5.07;;;4.20;;
11086;SDS011;5597;47.588;9.642;2024-01-07T13:09:40;4.63;;;3.80;;
11086;SDS011;5597;47.588;9.642;2024-01-07T13:12:05;4.33;;;3.70;;
11086;SDS011;5597;47.588;9.642;2024-01-07T13:14:31;4.50;;;4.00;;
11086;SDS011;5597;47.588;9.642;2024-01-07T13:16:57;5.00;;;3.80;;
11086;SDS011;5597;47.588;9.642;2024-01-07T13:19:23;4.60;;;4.10;;
11086;SDS011;5597;47.588;9.642;2024-01-07T13:21:49;4.80;;;3.97;;
11086;SDS011;5597;47.588;9.642;2024-01-07T13:24:15;5.20;;;4.00;;
11086;SDS011;5597;47.588;9.642;2024-01-07T13:26:41;4.73;;;4.17;;
11086;SDS011;5597;47.588;9.642;2024-01-07T13:29:07;4.43;;;3.80;;
11086;SDS011;5597;47.588;9.642;2024-01-07T13:31:32;4.50;;;4.00;;
11086;SDS011;5597;47.588;9.642;2024-01-07T13:33:58;4.70;;;4.10;;
11086;SDS011;5597;47.588;9.642;2024-01-07T13:36:23;4.63;;;4.10;;
11086;SDS011;5597;47.588;9.642;2024-01-07T13:38:49;5.53;;;4.60;;
11086;SDS011;5597;47.588;9.642;2024-01-07T13:41:15;4.53;;;4.03;;
11086;SDS011;5597;47.588;9.642;2024-01-07T13:43:41;6.00;;;4.63;;
11086;SDS011;5597;47.588;9.642;2024-01-07T13:46:07;5.27;;;4.20;;
11086;SDS011;5597;47.588;9.642;2024-01-07T13:48:33;4.83;;;4.13;;
11086;SDS011;5597;47.588;9.642;2024-01-07T13:50:59;4.30;;;3.90;;
11086;SDS011;5597;47.588;9.642;2024-01-07T13:53:25;5.17;;;4.30;;
11086;SDS011;5597;47.588;9.642;2024-01-07T13:55:51;4.63;;;3.93;;
11086;SDS011;5597;47.588;9.642;2024-01-07T13:58:16;6.07;;;4.30;;
11086;SDS011;5597;47.588;9.642;2024-01-07T14:00:42;6.23;;;4.77;;
11086;SDS011;5597;47.588;9.642;2024-01-07T14:03:07;5.47;;;4.60;;
11086;SDS011;5597;47.588;9.642;2024-01-07T14:05:33;4.37;;;3.93;;
11086;SDS011;5597;47.588;9.642;2024-01-07T14:07:58;4.83;;;4.30;;
11086;SDS011;5597;47.588;9.642;2024-01-07T14:10:24;5.77;;;4.63;;
11086;SDS011;5597;47.588;9.642;2024-01-07T14:12:50;5.63;;;4.20;;
11086;SDS011;5597;47.588;9.642;2024-01-07T14:15:16;4.53;;;4.00;;
11086;SDS011;5597;47.588;9.642;2024-01-07T14:17:43;6.10;;;5.17;;
11086;SDS011;5597;47.588;9.642;2024-01-07T14:20:09;6.43;;;4.70;;
11086;SDS011;5597;47.588;9.642;2024-01-07T14:22:35;6.00;;;4.70;;
11086;SDS011;5597;47.588;9.642;2024-01-07T14:25:01;6.17;;;4.70;;
11086;SDS011;5597;47.588;9.642;2024-01-07T14:27:28;5.93;;;5.00;;
11086;SDS011;5597;47.588;9.642;2024-01-07T14:29:54;6.80;;;5.57;;
11086;SDS011;5597;47.588;9.642;2024-01-07T14:32:21;6.17;;;4.87;;
11086;SDS011;5597;47.588;9.642;2024-01-07T14:34:47;5.63;;;4.90;;
11086;SDS011;5597;47.588;9.642;2024-01-07T14:37:14;7.00;;;5.10;;
11086;SDS011;5597;47.588;9.642;2024-01-07T14:39:40;6.17;;;5.30;;
11086;SDS011;5597;47.588;9.642;2024-01-07T14:42:06;5.80;;;5.07;;
11086;SDS011;5597;47.588;9.642;2024-01-07T14:44:31;5.97;;;5.00;;
11086;SDS011;5597;47.588;9.642;2024-01-07T14:46:57;9.37;;;6.53;;
11086;SDS011;5597;47.588;9.642;2024-01-07T14:49:23;7.30;;;5.77;;
11086;SDS011;5597;47.588;9.642;2024-01-07T14:51:48;7.80;;;5.33;;
11086;SDS011;5597;47.588;9.642;2024-01-07T14:54:14;7.30;;;5.53;;
11086;SDS011;5597;47.588;9.642;2024-01-07T14:56:39;6.63;;;5.13;;
11086;SDS011;5597;47.588;9.642;2024-01-07T14:59:05;6.40;;;5.37;;
11086;SDS011;5597;47.588;9.642;2024-01-07T15:01:31;7.17;;;5.07;;